sensor_id;sensor_type;location;lat;lon;timestamp;P1;durP1;ratioP1;P2;durP2;ratioP2
56860;SDS011;42744;51.094;3.490;2023-05-07T00:01:59;12.97;;;5.07;;
56860;SDS011;42744;51.094;3.490;2023-05-07T00:04:26;12.13;;;5.47;;
56860;SDS011;42744;51.094;3.490;2023-05-07T00:06:53;12.07;;;5.70;;
56860;SDS011;42744;51.094;3.490;2023-05-07T00:09:19;11.37;;;4.97;;
56860;SDS011;42744;51.094;3.490;2023-05-07T00:11:45;14.13;;;5.73;;
56860;SDS011;42744;51.094;3.490;2023-05-07T00:14:11;8.27;;;5.00;;
56860;SDS011;42744;51.094;3.490;2023-05-07T00:16:37;9.93;;;5.53;;
56860;SDS011;42744;51.094;3.490;2023-05-07T00:19:03;13.10;;;5.67;;
56860;SDS011;42744;51.094;3.490;2023-05-07T00:21:29;10.53;;;6.20;;
56860;SDS011;42744;51.094;3.490;2023-05-07T00:23:55;9.57;;;5.10;;
56860;SDS011;42744;51.094;3.490;2023-05-07T00:26:22;10.80;;;5.20;;
56860;SDS011;42744;51.094;3.490;2023-05-07T00:28:48;10.43;;;5.53;;
56860;SDS011;42744;51.094;3.490;2023-05-07T00:31:14;11.63;;;5.50;;
56860;SDS011;42744;51.094;3.490;2023-05-07T00:33:41;9.53;;;4.90;;
56860;SDS011;42744;51.094;3.490;2023-05-07T00:36:06;11.60;;;5.63;;
56860;SDS011;42744;51.094;3.490;2023-05-07T00:38:33;14.03;;;5.57;;
56860;SDS011;42744;51.094;3.490;2023-05-07T00:40:59;10.03;;;5.90;;
56860;SDS011;42744;51.094;3.490;2023-05-07T00:43:25;9.90;;;5.10;;
56860;SDS011;42744;51.094;3.490;2023-05-07T00:45:52;11.23;;;5.23;;
56860;SDS011;42744;51.094;3.490;2023-05-07T00:48:19;9.83;;;4.70;;
56860;SDS011;42744;51.094;3.490;2023-05-07T00:50:45;12.30;;;5.40;;
56860;SDS011;42744;51.094;3.490;2023-05-07T00:53:12;12.60;;;4.97;;
56860;SDS011;42744;51.094;3.490;2023-05-07T00:55:39;9.40;;;4.53;;
56860;SDS011;42744;51.094;3.490;2023-05-07T00:58:05;8.77;;;4.90;;
56860;SDS011;42744;51.094;3.490;2023-05-07T01:00:31;11.83;;;5.10;;
56860;SDS011;42744;51.094;3.490;2023-05-07T01:02:58;13.53;;;5.67;;
56860;SDS011;42744;51.094;3.490;2023-05-07T01:05:24;10.43;;;5.00;;
56860;SDS011;42744;51.094;3.490;2023-05-07T01:07:51;8.60;;;5.50;;
56860;SDS011;42744;51.094;3.490;2023-05-07T01:10:19;15.87;;;5.70;;
56860;SDS011;42744;51.094;3.490;2023-05-07T01:12:45;8.87;;;5.87;;
56860;SDS011;42744;51.094;3.490;2023-05-07T01:15:12;7.17;;;4.90;;
56860;SDS011;42744;51.094;3.490;2023-05-07T01:17:40;12.50;;;5.03;;
56860;SDS011;42744;51.094;3.490;2023-05-07T01:20:08;11.90;;;5.27;;
56860;SDS011;42744;51.094;3.490;2023-05-07T01:22:36;9.03;;;5.47;;
56860;SDS011;42744;51.094;3.490;2023-05-07T01:25:04;10.23;;;5.43;;
56860;SDS011;42744;51.094;3.490;2023-05-07T01:27:33;12.83;;;5.50;;
56860;SDS011;42744;51.094;3.490;2023-05-07T01:30:01;10.57;;;5.27;;
56860;SDS011;42744;51.094;3.490;2023-05-07T01:32:32;11.93;;;5.17;;
56860;SDS011;42744;51.094;3.490;2023-05-07T01:35:02;9.10;;;5.70;;
56860;SDS011;42744;51.094;3.490;2023-05-07T01:37:31;9.13;;;5.47;;
56860;SDS011;42744;51.094;3.490;2023-05-07T01:39:58;10.37;;;5.17;;
56860;SDS011;42744;51.094;3.490;2023-05-07T01:42:24;11.00;;;5.57;;
56860;SDS011;42744;51.094;3.490;2023-05-07T01:44:51;11.77;;;5.60;;
56860;SDS011;42744;51.094;3.490;2023-05-07T01:47:17;12.80;;;5.97;;
56860;SDS011;42744;51.094;3.490;2023-05-07T01:49:44;10.57;;;6.23;;
56860;SDS011;42744;51.094;3.490;2023-05-07T01:52:10;10.10;;;5.10;;
56860;SDS011;42744;51.094;3.490;2023-05-07T01:54:37;11.47;;;5.70;;
56860;SDS011;42744;51.094;3.490;2023-05-07T01:57:03;12.10;;;6.07;;
56860;SDS011;42744;51.094;3.490;2023-05-07T01:59:29;9.63;;;5.60;;
56860;SDS011;42744;51.094;3.490;2023-05-07T02:01:56;9.23;;;5.50;;
56860;SDS011;42744;51.094;3.490;2023-05-07T02:04:22;11.17;;;5.60;;
56860;SDS011;42744;51.094;3.490;2023-05-07T02:06:49;11.93;;;5.90;;
56860;SDS011;42744;51.094;3.490;2023-05-07T02:09:16;11.23;;;5.93;;
56860;SDS011;42744;51.094;3.490;2023-05-07T02:11:43;9.70;;;5.67;;
56860;SDS011;42744;51.094;3.490;2023-05-07T02:14:09;9.17;;;5.97;;
56860;SDS011;42744;51.094;3.490;2023-05-07T02:16:35;9.07;;;5.47;;
56860;SDS011;42744;51.094;3.490;2023-05-07T02:19:02;8.90;;;6.03;;
56860;SDS011;42744;51.094;3.490;2023-05-07T02:21:28;14.63;;;6.37;;
56860;SDS011;42744;51.094;3.490;2023-05-07T02:23:53;13.93;;;6.60;;
56860;SDS011;42744;51.094;3.490;2023-05-07T02:26:20;11.73;;;6.23;;
56860;SDS011;42744;51.094;3.490;2023-05-07T02:28:47;10.10;;;6.30;;
56860;SDS011;42744;51.094;3.490;2023-05-07T02:31:13;10.57;;;5.90;;
56860;SDS011;42744;51.094;3.490;2023-05-07T02:33:39;12.93;;;6.77;;
56860;SDS011;42744;51.094;3.490;2023-05-07T02:36:06;14.67;;;6.87;;
56860;SDS011;42744;51.094;3.490;2023-05-07T02:38:34;12.03;;;6.70;;
56860;SDS011;42744;51.094;3.490;2023-05-07T02:41:00;11.37;;;6.10;;
56860;SDS011;42744;51.094;3.490;2023-05-07T02:43:26;9.80;;;6.87;;
56860;SDS011;42744;51.094;3.490;2023-05-07T02:46:05;11.37;;;6.30;;
56860;SDS011;42744;51.094;3.490;2023-05-07T02:48:33;10.97;;;6.73;;
56860;SDS011;42744;51.094;3.490;2023-05-07T02:51:00;10.60;;;6.77;;
56860;SDS011;42744;51.094;3.490;2023-05-07T02:53:26;10.13;;;6.57;;
56860;SDS011;42744;51.094;3.490;2023-05-07T02:55:53;10.03;;;6.60;;
56860;SDS011;42744;51.094;3.490;2023-05-07T02:58:19;11.43;;;6.90;;
56860;SDS011;42744;51.094;3.490;2023-05-07T03:00:46;13.10;;;6.40;;
56860;SDS011;42744;51.094;3.490;2023-05-07T03:03:13;9.40;;;6.57;;
56860;SDS011;42744;51.094;3.490;2023-05-07T03:05:40;8.53;;;6.30;;
56860;SDS011;42744;51.094;3.490;2023-05-07T03:08:06;7.67;;;6.40;;
56860;SDS011;42744;51.094;3.490;2023-05-07T03:10:33;12.03;;;6.60;;
56860;SDS011;42744;51.094;3.490;2023-05-07T03:13:00;9.47;;;6.73;;
56860;SDS011;42744;51.094;3.490;2023-05-07T03:15:26;8.80;;;6.50;;
56860;SDS011;42744;51.094;3.490;2023-05-07T03:17:52;9.53;;;6.10;;
56860;SDS011;42744;51.094;3.490;2023-05-07T03:20:18;7.73;;;6.23;;
56860;SDS011;42744;51.094;3.490;2023-05-07T03:22:44;10.00;;;6.30;;
56860;SDS011;42744;51.094;3.490;2023-05-07T03:25:11;14.50;;;7.03;;
56860;SDS011;42744;51.094;3.490;2023-05-07T03:27:37;8.80;;;6.03;;
56860;SDS011;42744;51.094;3.490;2023-05-07T03:30:04;10.03;;;6.17;;
56860;SDS011;42744;51.094;3.490;2023-05-07T03:32:32;8.70;;;6.67;;
56860;SDS011;42744;51.094;3.490;2023-05-07T03:34:58;11.00;;;6.43;;
56860;SDS011;42744;51.094;3.490;2023-05-07T03:37:24;10.77;;;6.83;;
56860;SDS011;42744;51.094;3.490;2023-05-07T03:39:51;13.60;;;7.73;;
56860;SDS011;42744;51.094;3.490;2023-05-07T03:42:17;9.63;;;6.63;;
56860;SDS011;42744;51.094;3.490;2023-05-07T03:44:44;12.23;;;7.50;;
56860;SDS011;42744;51.094;3.490;2023-05-07T03:47:10;10.77;;;7.10;;
56860;SDS011;42744;51.094;3.490;2023-05-07T03:49:38;11.03;;;7.10;;
56860;SDS011;42744;51.094;3.490;2023-05-07T03:52:05;13.77;;;6.70;;
56860;SDS011;42744;51.094;3.490;2023-05-07T03:54:32;11.50;;;7.93;;
56860;SDS011;42744;51.094;3.490;2023-05-07T03:56:58;13.30;;;8.37;;
56860;SDS011;42744;51.094;3.490;2023-05-07T03:59:24;10.50;;;7.37;;
56860;SDS011;42744;51.094;3.490;2023-05-07T04:01:51;11.90;;;7.83;;
56860;SDS011;42744;51.094;3.490;2023-05-07T04:04:21;11.37;;;7.90;;
56860;SDS011;42744;51.094;3.490;2023-05-07T04:06:47;12.57;;;7.47;;
56860;SDS011;42744;51.094;3.490;2023-05-07T04:09:13;15.30;;;7.93;;
56860;SDS011;42744;51.094;3.490;2023-05-07T04:11:40;11.33;;;8.40;;
56860;SDS011;42744;51.094;3.490;2023-05-07T04:14:07;9.63;;;7.30;;
56860;SDS011;42744;51.094;3.490;2023-05-07T04:16:34;14.57;;;8.43;;
56860;SDS011;42744;51.094;3.490;2023-05-07T04:19:01;9.67;;;7.57;;
56860;SDS011;42744;51.094;3.490;2023-05-07T04:21:27;9.87;;;7.60;;
56860;SDS011;42744;51.094;3.490;2023-05-07T04:23:53;9.37;;;7.20;;
56860;SDS011;42744;51.094;3.490;2023-05-07T04:26:21;14.67;;;7.40;;
56860;SDS011;42744;51.094;3.490;2023-05-07T04:28:47;11.03;;;7.47;;
56860;SDS011;42744;51.094;3.490;2023-05-07T04:31:13;9.37;;;6.90;;
56860;SDS011;42744;51.094;3.490;2023-05-07T04:33:39;10.27;;;7.60;;
56860;SDS011;42744;51.094;3.490;2023-05-07T04:36:06;10.40;;;8.07;;
56860;SDS011;42744;51.094;3.490;2023-05-07T04:38:34;11.47;;;7.50;;
56860;SDS011;42744;51.094;3.490;2023-05-07T04:41:04;9.27;;;7.23;;
56860;SDS011;42744;51.094;3.490;2023-05-07T04:43:32;13.33;;;7.73;;
56860;SDS011;42744;51.094;3.490;2023-05-07T04:45:58;10.53;;;8.03;;
56860;SDS011;42744;51.094;3.490;2023-05-07T04:48:25;11.53;;;7.40;;
56860;SDS011;42744;51.094;3.490;2023-05-07T04:50:52;10.50;;;7.70;;
56860;SDS011;42744;51.094;3.490;2023-05-07T04:53:18;12.00;;;7.83;;
56860;SDS011;42744;51.094;3.490;2023-05-07T04:55:45;10.80;;;7.73;;
56860;SDS011;42744;51.094;3.490;2023-05-07T04:58:11;11.30;;;8.00;;
56860;SDS011;42744;51.094;3.490;2023-05-07T05:00:38;11.13;;;7.70;;
56860;SDS011;42744;51.094;3.490;2023-05-07T05:03:08;11.93;;;8.10;;
56860;SDS011;42744;51.094;3.490;2023-05-07T05:05:34;10.73;;;8.00;;
56860;SDS011;42744;51.094;3.490;2023-05-07T05:08:01;11.13;;;8.63;;
56860;SDS011;42744;51.094;3.490;2023-05-07T05:10:27;11.87;;;8.40;;
56860;SDS011;42744;51.094;3.490;2023-05-07T05:12:54;14.17;;;8.37;;
56860;SDS011;42744;51.094;3.490;2023-05-07T05:15:20;13.83;;;9.00;;
56860;SDS011;42744;51.094;3.490;2023-05-07T05:17:47;14.87;;;8.40;;
56860;SDS011;42744;51.094;3.490;2023-05-07T05:20:14;13.03;;;7.83;;
56860;SDS011;42744;51.094;3.490;2023-05-07T05:22:41;9.87;;;8.53;;
56860;SDS011;42744;51.094;3.490;2023-05-07T05:25:07;14.60;;;8.67;;
56860;SDS011;42744;51.094;3.490;2023-05-07T05:27:34;10.23;;;8.53;;
56860;SDS011;42744;51.094;3.490;2023-05-07T05:30:01;14.70;;;8.83;;
56860;SDS011;42744;51.094;3.490;2023-05-07T05:32:29;10.00;;;8.73;;
56860;SDS011;42744;51.094;3.490;2023-05-07T05:34:55;14.00;;;8.73;;
56860;SDS011;42744;51.094;3.490;2023-05-07T05:37:21;12.70;;;8.40;;
56860;SDS011;42744;51.094;3.490;2023-05-07T05:39:48;13.33;;;8.93;;
56860;SDS011;42744;51.094;3.490;2023-05-07T05:42:14;12.70;;;8.07;;
56860;SDS011;42744;51.094;3.490;2023-05-07T05:44:40;13.37;;;9.37;;
56860;SDS011;42744;51.094;3.490;2023-05-07T05:47:07;13.30;;;8.30;;
56860;SDS011;42744;51.094;3.490;2023-05-07T05:49:33;14.77;;;9.77;;
56860;SDS011;42744;51.094;3.490;2023-05-07T05:52:01;12.63;;;8.40;;
56860;SDS011;42744;51.094;3.490;2023-05-07T05:54:28;15.77;;;9.10;;
56860;SDS011;42744;51.094;3.490;2023-05-07T05:56:54;14.23;;;9.00;;
56860;SDS011;42744;51.094;3.490;2023-05-07T05:59:21;15.50;;;9.03;;
56860;SDS011;42744;51.094;3.490;2023-05-07T06:01:47;14.33;;;9.60;;
56860;SDS011;42744;51.094;3.490;2023-05-07T06:04:13;13.03;;;9.17;;
56860;SDS011;42744;51.094;3.490;2023-05-07T06:06:39;12.13;;;8.67;;
56860;SDS011;42744;51.094;3.490;2023-05-07T06:09:05;9.97;;;8.00;;
56860;SDS011;42744;51.094;3.490;2023-05-07T06:11:33;15.83;;;8.80;;
56860;SDS011;42744;51.094;3.490;2023-05-07T06:13:59;12.10;;;8.03;;
56860;SDS011;42744;51.094;3.490;2023-05-07T06:16:25;11.43;;;8.27;;
56860;SDS011;42744;51.094;3.490;2023-05-07T06:18:52;11.40;;;8.00;;
56860;SDS011;42744;51.094;3.490;2023-05-07T06:21:17;12.03;;;8.40;;
56860;SDS011;42744;51.094;3.490;2023-05-07T06:23:43;14.37;;;8.77;;
56860;SDS011;42744;51.094;3.490;2023-05-07T06:26:10;14.23;;;8.40;;
56860;SDS011;42744;51.094;3.490;2023-05-07T06:28:36;14.93;;;8.87;;
56860;SDS011;42744;51.094;3.490;2023-05-07T06:33:39;12.97;;;8.53;;
56860;SDS011;42744;51.094;3.490;2023-05-07T06:36:06;13.60;;;9.03;;
56860;SDS011;42744;51.094;3.490;2023-05-07T06:38:32;14.90;;;8.90;;
56860;SDS011;42744;51.094;3.490;2023-05-07T06:40:58;14.50;;;9.17;;
56860;SDS011;42744;51.094;3.490;2023-05-07T06:43:24;13.30;;;9.23;;
56860;SDS011;42744;51.094;3.490;2023-05-07T06:45:52;11.27;;;9.37;;
56860;SDS011;42744;51.094;3.490;2023-05-07T06:48:18;11.77;;;8.80;;
56860;SDS011;42744;51.094;3.490;2023-05-07T06:50:45;14.53;;;9.03;;
56860;SDS011;42744;51.094;3.490;2023-05-07T06:53:11;14.50;;;8.73;;
56860;SDS011;42744;51.094;3.490;2023-05-07T06:55:37;16.30;;;8.57;;
56860;SDS011;42744;51.094;3.490;2023-05-07T06:58:04;14.07;;;8.20;;
56860;SDS011;42744;51.094;3.490;2023-05-07T07:00:31;17.47;;;9.10;;
56860;SDS011;42744;51.094;3.490;2023-05-07T07:02:57;11.63;;;8.10;;
56860;SDS011;42744;51.094;3.490;2023-05-07T07:05:26;12.67;;;8.43;;
56860;SDS011;42744;51.094;3.490;2023-05-07T07:07:53;10.53;;;7.70;;
56860;SDS011;42744;51.094;3.490;2023-05-07T07:10:19;14.57;;;8.37;;
56860;SDS011;42744;51.094;3.490;2023-05-07T07:12:46;13.93;;;8.07;;
56860;SDS011;42744;51.094;3.490;2023-05-07T07:15:13;10.77;;;6.97;;
56860;SDS011;42744;51.094;3.490;2023-05-07T07:17:40;11.33;;;6.97;;
56860;SDS011;42744;51.094;3.490;2023-05-07T07:20:06;9.60;;;6.40;;
56860;SDS011;42744;51.094;3.490;2023-05-07T07:22:33;8.80;;;6.43;;
56860;SDS011;42744;51.094;3.490;2023-05-07T07:24:59;8.23;;;6.43;;
56860;SDS011;42744;51.094;3.490;2023-05-07T07:27:25;11.93;;;6.17;;
56860;SDS011;42744;51.094;3.490;2023-05-07T07:29:51;8.87;;;6.83;;
56860;SDS011;42744;51.094;3.490;2023-05-07T07:32:18;9.83;;;6.50;;
56860;SDS011;42744;51.094;3.490;2023-05-07T07:34:44;8.57;;;5.63;;
56860;SDS011;42744;51.094;3.490;2023-05-07T07:37:12;8.97;;;5.67;;
56860;SDS011;42744;51.094;3.490;2023-05-07T07:39:38;11.50;;;6.10;;
56860;SDS011;42744;51.094;3.490;2023-05-07T07:42:04;7.87;;;5.90;;
56860;SDS011;42744;51.094;3.490;2023-05-07T07:44:31;10.80;;;6.10;;
56860;SDS011;42744;51.094;3.490;2023-05-07T07:46:58;10.40;;;5.50;;
56860;SDS011;42744;51.094;3.490;2023-05-07T07:49:24;8.73;;;5.60;;
56860;SDS011;42744;51.094;3.490;2023-05-07T07:51:50;11.47;;;6.07;;
56860;SDS011;42744;51.094;3.490;2023-05-07T07:54:16;11.33;;;6.33;;
56860;SDS011;42744;51.094;3.490;2023-05-07T07:56:43;7.87;;;5.70;;
56860;SDS011;42744;51.094;3.490;2023-05-07T07:59:09;9.37;;;5.57;;
56860;SDS011;42744;51.094;3.490;2023-05-07T08:01:37;10.03;;;5.70;;
56860;SDS011;42744;51.094;3.490;2023-05-07T08:04:04;8.63;;;6.00;;
56860;SDS011;42744;51.094;3.490;2023-05-07T08:06:31;10.00;;;5.87;;
56860;SDS011;42744;51.094;3.490;2023-05-07T08:08:57;9.90;;;6.07;;
56860;SDS011;42744;51.094;3.490;2023-05-07T08:11:24;8.07;;;5.40;;
56860;SDS011;42744;51.094;3.490;2023-05-07T08:13:51;11.43;;;6.03;;
56860;SDS011;42744;51.094;3.490;2023-05-07T08:16:17;11.07;;;5.40;;
56860;SDS011;42744;51.094;3.490;2023-05-07T08:18:44;12.37;;;5.97;;
56860;SDS011;42744;51.094;3.490;2023-05-07T08:21:10;7.70;;;5.57;;
56860;SDS011;42744;51.094;3.490;2023-05-07T08:23:36;9.50;;;5.47;;
56860;SDS011;42744;51.094;3.490;2023-05-07T08:26:02;10.53;;;5.90;;
56860;SDS011;42744;51.094;3.490;2023-05-07T08:28:28;9.17;;;5.90;;
56860;SDS011;42744;51.094;3.490;2023-05-07T08:30:55;10.30;;;6.23;;
56860;SDS011;42744;51.094;3.490;2023-05-07T08:33:23;10.03;;;6.63;;
56860;SDS011;42744;51.094;3.490;2023-05-07T08:35:49;15.73;;;7.47;;
56860;SDS011;42744;51.094;3.490;2023-05-07T08:38:16;9.67;;;6.70;;
56860;SDS011;42744;51.094;3.490;2023-05-07T08:40:42;10.20;;;7.20;;
56860;SDS011;42744;51.094;3.490;2023-05-07T08:43:10;8.90;;;7.17;;
56860;SDS011;42744;51.094;3.490;2023-05-07T08:45:39;12.53;;;7.93;;
56860;SDS011;42744;51.094;3.490;2023-05-07T08:48:14;10.80;;;6.90;;
56860;SDS011;42744;51.094;3.490;2023-05-07T08:50:41;9.40;;;7.10;;
56860;SDS011;42744;51.094;3.490;2023-05-07T08:53:09;10.33;;;7.77;;
56860;SDS011;42744;51.094;3.490;2023-05-07T08:55:35;9.40;;;7.17;;
56860;SDS011;42744;51.094;3.490;2023-05-07T08:58:01;11.03;;;7.50;;
56860;SDS011;42744;51.094;3.490;2023-05-07T09:00:28;10.73;;;7.60;;
56860;SDS011;42744;51.094;3.490;2023-05-07T09:02:55;8.90;;;7.47;;
56860;SDS011;42744;51.094;3.490;2023-05-07T09:05:22;12.70;;;7.57;;
56860;SDS011;42744;51.094;3.490;2023-05-07T09:07:49;13.73;;;7.70;;
56860;SDS011;42744;51.094;3.490;2023-05-07T09:10:15;11.13;;;7.23;;
56860;SDS011;42744;51.094;3.490;2023-05-07T09:12:42;12.77;;;7.67;;
56860;SDS011;42744;51.094;3.490;2023-05-07T09:15:09;12.20;;;7.97;;
56860;SDS011;42744;51.094;3.490;2023-05-07T09:17:35;9.40;;;6.80;;
56860;SDS011;42744;51.094;3.490;2023-05-07T09:20:04;9.40;;;6.90;;
56860;SDS011;42744;51.094;3.490;2023-05-07T09:22:32;12.57;;;7.33;;
56860;SDS011;42744;51.094;3.490;2023-05-07T09:24:58;11.43;;;7.50;;
56860;SDS011;42744;51.094;3.490;2023-05-07T09:27:25;11.37;;;7.87;;
56860;SDS011;42744;51.094;3.490;2023-05-07T09:29:52;12.90;;;8.07;;
56860;SDS011;42744;51.094;3.490;2023-05-07T09:32:18;12.67;;;8.30;;
56860;SDS011;42744;51.094;3.490;2023-05-07T09:34:44;11.67;;;7.40;;
56860;SDS011;42744;51.094;3.490;2023-05-07T09:37:12;10.20;;;7.30;;
56860;SDS011;42744;51.094;3.490;2023-05-07T09:39:46;11.23;;;7.27;;
56860;SDS011;42744;51.094;3.490;2023-05-07T09:42:16;9.33;;;7.40;;
56860;SDS011;42744;51.094;3.490;2023-05-07T09:44:48;11.60;;;7.70;;
56860;SDS011;42744;51.094;3.490;2023-05-07T09:47:18;12.67;;;7.80;;
56860;SDS011;42744;51.094;3.490;2023-05-07T09:49:47;11.80;;;8.77;;
56860;SDS011;42744;51.094;3.490;2023-05-07T09:52:14;13.53;;;8.13;;
56860;SDS011;42744;51.094;3.490;2023-05-07T09:54:42;10.20;;;6.90;;
56860;SDS011;42744;51.094;3.490;2023-05-07T09:57:12;8.87;;;7.23;;
56860;SDS011;42744;51.094;3.490;2023-05-07T09:59:40;13.17;;;9.43;;
56860;SDS011;42744;51.094;3.490;2023-05-07T10:02:09;12.97;;;10.10;;
56860;SDS011;42744;51.094;3.490;2023-05-07T10:04:37;13.03;;;9.57;;
56860;SDS011;42744;51.094;3.490;2023-05-07T10:07:05;12.20;;;7.40;;
56860;SDS011;42744;51.094;3.490;2023-05-07T10:09:34;10.27;;;6.93;;
56860;SDS011;42744;51.094;3.490;2023-05-07T10:12:04;11.67;;;8.50;;
56860;SDS011;42744;51.094;3.490;2023-05-07T10:14:32;10.90;;;7.00;;
56860;SDS011;42744;51.094;3.490;2023-05-07T10:16:59;12.03;;;7.20;;
56860;SDS011;42744;51.094;3.490;2023-05-07T10:19:27;10.07;;;6.77;;
56860;SDS011;42744;51.094;3.490;2023-05-07T10:21:56;10.73;;;6.73;;
56860;SDS011;42744;51.094;3.490;2023-05-07T10:24:30;10.10;;;7.07;;
56860;SDS011;42744;51.094;3.490;2023-05-07T10:27:00;10.67;;;6.70;;
56860;SDS011;42744;51.094;3.490;2023-05-07T10:32:12;7.67;;;5.93;;
56860;SDS011;42744;51.094;3.490;2023-05-07T10:35:00;11.23;;;5.80;;
56860;SDS011;42744;51.094;3.490;2023-05-07T10:37:28;8.53;;;6.53;;
56860;SDS011;42744;51.094;3.490;2023-05-07T10:39:56;9.40;;;6.57;;
56860;SDS011;42744;51.094;3.490;2023-05-07T10:42:23;8.10;;;7.30;;
56860;SDS011;42744;51.094;3.490;2023-05-07T10:44:50;11.40;;;6.87;;
56860;SDS011;42744;51.094;3.490;2023-05-07T10:47:16;10.17;;;6.47;;
56860;SDS011;42744;51.094;3.490;2023-05-07T10:52:15;10.40;;;6.87;;
56860;SDS011;42744;51.094;3.490;2023-05-07T10:54:44;9.53;;;6.27;;
56860;SDS011;42744;51.094;3.490;2023-05-07T11:00:40;8.50;;;6.77;;
56860;SDS011;42744;51.094;3.490;2023-05-07T11:05:26;9.30;;;7.03;;
56860;SDS011;42744;51.094;3.490;2023-05-07T11:07:55;10.17;;;6.60;;
56860;SDS011;42744;51.094;3.490;2023-05-07T11:10:23;8.63;;;6.17;;
56860;SDS011;42744;51.094;3.490;2023-05-07T11:13:16;8.30;;;6.80;;
56860;SDS011;42744;51.094;3.490;2023-05-07T11:15:47;10.60;;;6.80;;
56860;SDS011;42744;51.094;3.490;2023-05-07T11:18:15;9.63;;;6.73;;
56860;SDS011;42744;51.094;3.490;2023-05-07T11:20:47;11.33;;;6.70;;
56860;SDS011;42744;51.094;3.490;2023-05-07T11:28:28;11.07;;;7.33;;
56860;SDS011;42744;51.094;3.490;2023-05-07T11:30:56;10.73;;;6.57;;
56860;SDS011;42744;51.094;3.490;2023-05-07T11:33:24;7.60;;;6.43;;
56860;SDS011;42744;51.094;3.490;2023-05-07T11:35:53;10.47;;;6.30;;
56860;SDS011;42744;51.094;3.490;2023-05-07T11:38:20;12.23;;;7.27;;
56860;SDS011;42744;51.094;3.490;2023-05-07T11:40:51;10.57;;;7.03;;
56860;SDS011;42744;51.094;3.490;2023-05-07T11:43:18;8.30;;;6.73;;
56860;SDS011;42744;51.094;3.490;2023-05-07T11:45:44;10.07;;;6.40;;
56860;SDS011;42744;51.094;3.490;2023-05-07T11:48:15;7.40;;;6.57;;
56860;SDS011;42744;51.094;3.490;2023-05-07T11:53:24;8.97;;;6.97;;
56860;SDS011;42744;51.094;3.490;2023-05-07T11:55:56;9.73;;;6.60;;
56860;SDS011;42744;51.094;3.490;2023-05-07T11:58:23;11.63;;;6.63;;
56860;SDS011;42744;51.094;3.490;2023-05-07T12:00:51;11.57;;;7.67;;
56860;SDS011;42744;51.094;3.490;2023-05-07T12:03:18;8.63;;;7.43;;
56860;SDS011;42744;51.094;3.490;2023-05-07T12:05:47;8.43;;;6.67;;
56860;SDS011;42744;51.094;3.490;2023-05-07T12:08:14;10.33;;;6.60;;
56860;SDS011;42744;51.094;3.490;2023-05-07T12:10:44;7.83;;;6.50;;
56860;SDS011;42744;51.094;3.490;2023-05-07T12:13:16;12.47;;;7.00;;
56860;SDS011;42744;51.094;3.490;2023-05-07T12:15:46;11.80;;;6.93;;
56860;SDS011;42744;51.094;3.490;2023-05-07T12:18:15;10.97;;;6.73;;
56860;SDS011;42744;51.094;3.490;2023-05-07T12:20:41;12.17;;;7.53;;
56860;SDS011;42744;51.094;3.490;2023-05-07T12:23:08;10.30;;;7.10;;
56860;SDS011;42744;51.094;3.490;2023-05-07T12:25:36;8.83;;;6.63;;
56860;SDS011;42744;51.094;3.490;2023-05-07T12:28:03;8.87;;;7.20;;
56860;SDS011;42744;51.094;3.490;2023-05-07T12:30:39;10.43;;;6.70;;
56860;SDS011;42744;51.094;3.490;2023-05-07T12:33:05;9.90;;;6.57;;
56860;SDS011;42744;51.094;3.490;2023-05-07T12:35:32;9.80;;;6.80;;
56860;SDS011;42744;51.094;3.490;2023-05-07T12:38:07;11.27;;;6.80;;
56860;SDS011;42744;51.094;3.490;2023-05-07T12:40:39;12.03;;;7.50;;
56860;SDS011;42744;51.094;3.490;2023-05-07T12:43:17;9.20;;;6.90;;
56860;SDS011;42744;51.094;3.490;2023-05-07T12:45:44;9.87;;;7.27;;
56860;SDS011;42744;51.094;3.490;2023-05-07T12:48:12;9.03;;;6.77;;
56860;SDS011;42744;51.094;3.490;2023-05-07T12:50:38;11.33;;;7.03;;
56860;SDS011;42744;51.094;3.490;2023-05-07T12:53:04;7.60;;;6.17;;
56860;SDS011;42744;51.094;3.490;2023-05-07T12:55:40;9.43;;;7.23;;
56860;SDS011;42744;51.094;3.490;2023-05-07T13:00:53;9.33;;;6.50;;
56860;SDS011;42744;51.094;3.490;2023-05-07T13:03:30;8.10;;;6.53;;
56860;SDS011;42744;51.094;3.490;2023-05-07T13:06:00;10.67;;;7.47;;
56860;SDS011;42744;51.094;3.490;2023-05-07T13:08:29;12.10;;;7.73;;
56860;SDS011;42744;51.094;3.490;2023-05-07T13:10:57;22.47;;;9.00;;
56860;SDS011;42744;51.094;3.490;2023-05-07T13:13:30;19.00;;;7.83;;
56860;SDS011;42744;51.094;3.490;2023-05-07T13:15:58;16.67;;;7.90;;
56860;SDS011;42744;51.094;3.490;2023-05-07T13:18:25;9.87;;;7.20;;
56860;SDS011;42744;51.094;3.490;2023-05-07T13:20:52;11.97;;;7.13;;
56860;SDS011;42744;51.094;3.490;2023-05-07T13:23:19;8.63;;;7.20;;
56860;SDS011;42744;51.094;3.490;2023-05-07T13:25:45;10.87;;;7.40;;
56860;SDS011;42744;51.094;3.490;2023-05-07T13:28:11;9.60;;;7.72;;
56860;SDS011;42744;51.094;3.490;2023-05-07T13:30:37;8.93;;;7.70;;
56860;SDS011;42744;51.094;3.490;2023-05-07T13:33:03;9.77;;;7.93;;
56860;SDS011;42744;51.094;3.490;2023-05-07T13:35:29;12.20;;;8.17;;
56860;SDS011;42744;51.094;3.490;2023-05-07T13:37:55;10.33;;;7.83;;
56860;SDS011;42744;51.094;3.490;2023-05-07T13:40:22;11.40;;;7.73;;
56860;SDS011;42744;51.094;3.490;2023-05-07T13:42:48;10.23;;;7.12;;
56860;SDS011;42744;51.094;3.490;2023-05-07T13:45:15;10.10;;;7.00;;
56860;SDS011;42744;51.094;3.490;2023-05-07T13:47:42;8.63;;;7.57;;
56860;SDS011;42744;51.094;3.490;2023-05-07T13:50:08;7.82;;;6.82;;
56860;SDS011;42744;51.094;3.490;2023-05-07T13:52:43;10.93;;;6.82;;
56860;SDS011;42744;51.094;3.490;2023-05-07T13:55:21;8.05;;;6.45;;
56860;SDS011;42744;51.094;3.490;2023-05-07T13:57:54;7.87;;;7.07;;
56860;SDS011;42744;51.094;3.490;2023-05-07T14:00:22;8.50;;;6.82;;
56860;SDS011;42744;51.094;3.490;2023-05-07T14:02:49;7.80;;;7.00;;
56860;SDS011;42744;51.094;3.490;2023-05-07T14:05:15;8.02;;;7.22;;
56860;SDS011;42744;51.094;3.490;2023-05-07T14:07:41;9.48;;;7.68;;
56860;SDS011;42744;51.094;3.490;2023-05-07T14:10:07;9.98;;;7.93;;
56860;SDS011;42744;51.094;3.490;2023-05-07T14:12:34;8.45;;;7.18;;
56860;SDS011;42744;51.094;3.490;2023-05-07T14:15:00;8.68;;;7.65;;
56860;SDS011;42744;51.094;3.490;2023-05-07T14:17:26;9.60;;;7.57;;
56860;SDS011;42744;51.094;3.490;2023-05-07T14:19:53;8.70;;;7.15;;
56860;SDS011;42744;51.094;3.490;2023-05-07T14:22:19;8.13;;;6.97;;
56860;SDS011;42744;51.094;3.490;2023-05-07T14:24:47;9.80;;;7.47;;
56860;SDS011;42744;51.094;3.490;2023-05-07T14:27:13;12.05;;;7.75;;
56860;SDS011;42744;51.094;3.490;2023-05-07T14:29:40;8.85;;;7.50;;
56860;SDS011;42744;51.094;3.490;2023-05-07T14:32:08;9.13;;;7.25;;
56860;SDS011;42744;51.094;3.490;2023-05-07T14:34:33;9.10;;;7.57;;
56860;SDS011;42744;51.094;3.490;2023-05-07T14:36:59;7.87;;;7.05;;
56860;SDS011;42744;51.094;3.490;2023-05-07T14:39:26;9.52;;;7.60;;
56860;SDS011;42744;51.094;3.490;2023-05-07T14:41:52;8.88;;;7.45;;
56860;SDS011;42744;51.094;3.490;2023-05-07T14:44:20;8.15;;;6.62;;
56860;SDS011;42744;51.094;3.490;2023-05-07T14:46:46;7.95;;;7.03;;
56860;SDS011;42744;51.094;3.490;2023-05-07T14:49:13;10.43;;;7.45;;
56860;SDS011;42744;51.094;3.490;2023-05-07T14:51:45;8.70;;;7.25;;
56860;SDS011;42744;51.094;3.490;2023-05-07T14:54:12;10.52;;;7.25;;
56860;SDS011;42744;51.094;3.490;2023-05-07T14:56:39;10.45;;;7.22;;
56860;SDS011;42744;51.094;3.490;2023-05-07T14:59:06;8.90;;;7.68;;
56860;SDS011;42744;51.094;3.490;2023-05-07T15:01:34;10.57;;;8.05;;
56860;SDS011;42744;51.094;3.490;2023-05-07T15:04:02;10.75;;;6.95;;